Time;durP1;ratioP1;P1;durP2;ratioP2;P2;SDS_P1;SDS_P2;PMS_P1;PMS_P2;Temp;Humidity;BMP_temperature;BMP_pressure;BME280_temperature;BME280_humidity;BME280_pressure;Samples;Min_cycle;Max_cycle;Signal;HPM_P1;HPM_P2
2023/12/13 00:00:18;;;;;;;65.23;30.97;;;3.50;99.90;;;;;;4242996;27;20275;-58
2023/12/13 00:02:19;;;;;;;74.40;30.93;;;3.60;99.90;;;;;;4244826;27;20765;-59
2023/12/13 00:04:20;;;;;;;62.97;28.90;;;3.60;99.90;;;;;;4243661;27;20312;-60
2023/12/13 00:06:21;;;;;;;70.13;30.63;;;3.60;99.90;;;;;;4243839;27;20079;-59
2023/12/13 00:08:23;;;;;;;69.07;29.80;;;3.60;99.90;;;;;;4243761;27;20332;-58
2023/12/13 00:10:24;;;;;;;68.50;30.27;;;3.60;99.90;;;;;;4244430;27;20355;-56
2023/12/13 00:12:25;;;;;;;62.40;29.67;;;3.60;99.90;;;;;;4243564;27;20312;-58
2023/12/13 00:14:27;;;;;;;70.67;29.00;;;3.70;99.90;;;;;;4243650;27;20352;-58
2023/12/13 00:16:28;;;;;;;57.27;28.17;;;3.70;99.90;;;;;;4241712;27;20039;-59
2023/12/13 00:18:30;;;;;;;59.27;28.00;;;3.70;99.90;;;;;;4243998;27;20339;-57
2023/12/13 00:20:31;;;;;;;60.73;27.50;;;3.60;99.90;;;;;;4242984;27;20330;-58
2023/12/13 00:22:33;;;;;;;58.47;28.90;;;3.60;99.90;;;;;;4224978;28;20049;-59
2023/12/13 00:24:34;;;;;;;58.03;28.50;;;3.60;99.90;;;;;;4244578;27;20429;-59
2023/12/13 00:26:35;;;;;;;56.17;27.20;;;3.50;99.90;;;;;;4243520;27;20761;-59
2023/12/13 00:28:37;;;;;;;61.03;30.47;;;3.50;99.90;;;;;;4243139;27;20791;-55
2023/12/13 00:30:38;;;;;;;56.93;27.23;;;3.50;99.90;;;;;;4243162;27;20259;-58
2023/12/13 00:32:39;;;;;;;56.43;25.73;;;3.50;99.90;;;;;;4243821;27;20267;-58
2023/12/13 00:34:40;;;;;;;58.03;26.23;;;3.50;99.90;;;;;;4243208;27;20604;-59
2023/12/13 00:36:41;;;;;;;52.90;26.10;;;3.40;99.90;;;;;;4244164;27;20622;-60
2023/12/13 00:38:42;;;;;;;51.23;25.87;;;3.40;99.90;;;;;;4243336;27;20271;-58
2023/12/13 00:40:45;;;;;;;45.67;24.97;;;3.40;99.90;;;;;;4244006;27;20588;-60
2023/12/13 00:42:46;;;;;;;58.60;28.03;;;3.30;99.90;;;;;;4241421;27;20411;-60
2023/12/13 00:44:47;;;;;;;53.80;26.47;;;3.30;99.90;;;;;;4243760;27;20751;-56
2023/12/13 00:46:48;;;;;;;60.20;29.17;;;3.30;99.90;;;;;;4243166;27;20723;-60
2023/12/13 00:48:50;;;;;;;58.50;27.80;;;3.30;99.90;;;;;;4243407;27;21136;-60
2023/12/13 00:50:51;;;;;;;61.50;28.67;;;3.30;99.90;;;;;;4243581;27;20343;-59
2023/12/13 00:52:52;;;;;;;54.70;27.63;;;3.20;99.90;;;;;;4242239;27;20332;-59
2023/12/13 00:54:53;;;;;;;65.37;31.00;;;3.20;99.90;;;;;;4243561;27;20340;-58
2023/12/13 00:56:54;;;;;;;60.27;28.97;;;3.20;99.90;;;;;;4242989;27;20343;-58
2023/12/13 00:58:56;;;;;;;66.80;31.73;;;3.20;99.90;;;;;;4243326;27;20260;-58
2023/12/13 01:00:57;;;;;;;62.67;30.73;;;3.20;99.90;;;;;;4241782;27;20259;-59
2023/12/13 01:02:58;;;;;;;67.00;31.57;;;3.20;99.90;;;;;;4243980;27;20343;-57
2023/12/13 01:04:59;;;;;;;64.50;30.27;;;3.20;99.90;;;;;;4242116;27;20374;-57
2023/12/13 01:07:00;;;;;;;61.70;29.00;;;3.20;99.90;;;;;;4241870;27;20264;-57
2023/12/13 01:09:02;;;;;;;64.17;28.83;;;3.20;99.90;;;;;;4241838;27;20291;-58
2023/12/13 01:11:07;;;;;;;61.17;27.90;;;3.20;99.90;;;;;;4243275;27;20267;-58
2023/12/13 01:13:08;;;;;;;59.57;27.87;;;3.20;99.90;;;;;;4242168;27;20279;-58
2023/12/13 01:15:10;;;;;;;55.53;27.50;;;3.20;99.90;;;;;;4243401;27;20027;-59
2023/12/13 01:17:12;;;;;;;51.33;24.80;;;3.10;99.90;;;;;;4242806;27;20256;-55
2023/12/13 01:19:14;;;;;;;49.63;24.53;;;3.10;99.90;;;;;;4243203;27;20347;-58
2023/12/13 01:21:15;;;;;;;48.40;24.43;;;3.10;99.90;;;;;;4242762;27;20339;-58
2023/12/13 01:23:16;;;;;;;45.77;25.87;;;3.10;99.90;;;;;;4242382;27;20328;-58
2023/12/13 01:25:18;;;;;;;51.10;25.47;;;3.10;99.90;;;;;;4242652;27;20332;-58
2023/12/13 01:27:19;;;;;;;47.63;22.83;;;3.10;99.90;;;;;;4241836;27;20612;-56
2023/12/13 01:29:20;;;;;;;43.00;23.33;;;3.10;99.90;;;;;;4242485;27;20661;-58
2023/12/13 01:31:21;;;;;;;49.13;23.63;;;3.10;99.90;;;;;;4240936;27;20268;-58
2023/12/13 01:33:22;;;;;;;41.20;22.03;;;3.20;99.90;;;;;;4242663;28;20279;-56
2023/12/13 01:35:23;;;;;;;41.17;20.97;;;3.10;99.90;;;;;;4242324;28;20622;-58
2023/12/13 01:37:25;;;;;;;42.47;23.13;;;3.10;99.90;;;;;;4241510;28;20336;-58
2023/12/13 01:39:26;;;;;;;44.90;21.20;;;3.10;99.90;;;;;;4242164;28;20267;-57
2023/12/13 01:41:27;;;;;;;43.63;21.27;;;3.10;99.90;;;;;;4243207;28;20260;-56
2023/12/13 01:43:29;;;;;;;44.67;22.63;;;3.10;99.90;;;;;;4242188;28;20665;-58
2023/12/13 01:45:30;;;;;;;42.57;22.10;;;3.10;99.90;;;;;;4243105;28;20256;-56
2023/12/13 01:47:31;;;;;;;44.50;23.20;;;3.10;99.90;;;;;;4242573;28;20393;-57
2023/12/13 01:49:32;;;;;;;42.13;22.00;;;3.10;99.90;;;;;;4240722;28;20298;-57
2023/12/13 01:51:35;;;;;;;43.10;20.63;;;3.10;99.90;;;;;;4241755;28;20263;-57
2023/12/13 01:53:38;;;;;;;48.20;22.17;;;3.10;99.90;;;;;;4242568;27;20263;-59
2023/12/13 01:55:40;;;;;;;43.60;21.00;;;3.10;99.90;;;;;;4245089;27;20275;-59
2023/12/13 01:57:41;;;;;;;38.33;19.93;;;3.10;99.90;;;;;;4245768;27;20272;-59
2023/12/13 01:59:43;;;;;;;40.70;20.53;;;3.10;99.90;;;;;;4245612;27;20267;-57
2023/12/13 02:01:44;;;;;;;38.10;21.33;;;3.10;99.90;;;;;;4245709;27;20771;-57
2023/12/13 02:03:46;;;;;;;34.53;19.67;;;3.10;99.90;;;;;;4246072;27;20358;-58
2023/12/13 02:05:50;;;;;;;39.40;21.17;;;3.10;99.90;;;;;;4242622;27;20272;-57
2023/12/13 02:07:51;;;;;;;39.13;20.43;;;3.00;99.90;;;;;;4246197;27;20276;-59
2023/12/13 02:09:53;;;;;;;37.43;17.77;;;3.00;99.90;;;;;;4245578;27;20347;-58
2023/12/13 02:11:54;;;;;;;34.37;18.80;;;3.10;99.90;;;;;;4245891;27;20394;-58
2023/12/13 02:13:56;;;;;;;37.93;19.33;;;3.10;99.90;;;;;;4245790;27;20299;-58
2023/12/13 02:15:58;;;;;;;38.97;19.97;;;3.10;99.90;;;;;;4245285;27;20279;-59
2023/12/13 02:17:59;;;;;;;42.23;20.10;;;3.10;99.90;;;;;;4245447;27;20324;-57
2023/12/13 02:20:01;;;;;;;42.60;20.33;;;3.10;99.90;;;;;;4246219;27;20307;-56
2023/12/13 02:22:06;;;;;;;40.43;20.20;;;3.10;99.90;;;;;;4244712;27;20732;-57
2023/12/13 02:24:08;;;;;;;33.00;18.33;;;3.10;99.90;;;;;;4245539;27;20264;-56
2023/12/13 02:26:12;;;;;;;37.37;18.90;;;3.20;99.90;;;;;;4245689;27;20271;-59
2023/12/13 02:28:13;;;;;;;41.43;20.10;;;3.20;99.90;;;;;;4245682;27;20669;-59
2023/12/13 02:30:14;;;;;;;34.80;18.50;;;3.20;99.90;;;;;;4244555;27;20287;-58
2023/12/13 02:32:16;;;;;;;36.17;18.00;;;3.20;99.90;;;;;;4245378;27;20325;-57
2023/12/13 02:34:17;;;;;;;38.93;18.80;;;3.20;99.90;;;;;;4245108;27;20271;-55
2023/12/13 02:36:18;;;;;;;32.40;17.17;;;3.20;99.90;;;;;;4244374;27;20786;-58
2023/12/13 02:38:19;;;;;;;33.90;17.47;;;3.20;99.90;;;;;;4245766;27;20661;-56
2023/12/13 02:40:21;;;;;;;31.37;18.00;;;3.20;99.90;;;;;;4243842;27;20324;-59
2023/12/13 02:42:23;;;;;;;33.30;17.50;;;3.20;99.90;;;;;;4245870;27;20325;-60
2023/12/13 02:44:24;;;;;;;32.63;17.17;;;3.20;99.90;;;;;;4244839;27;20320;-58
2023/12/13 02:46:26;;;;;;;31.63;17.93;;;3.20;99.90;;;;;;4244582;27;20308;-59
2023/12/13 02:48:27;;;;;;;33.70;18.13;;;3.20;99.90;;;;;;4244144;27;20340;-59
2023/12/13 02:50:28;;;;;;;32.03;16.87;;;3.20;99.90;;;;;;4244904;27;20268;-58
2023/12/13 02:52:29;;;;;;;30.33;16.20;;;3.20;99.90;;;;;;4245069;27;20308;-58
2023/12/13 02:54:31;;;;;;;37.17;18.60;;;3.30;99.90;;;;;;4245215;27;20707;-58
2023/12/13 02:56:32;;;;;;;35.27;17.50;;;3.30;99.90;;;;;;4244807;27;20256;-59
2023/12/13 02:58:33;;;;;;;30.73;17.33;;;3.30;99.90;;;;;;4245055;27;20263;-58
2023/12/13 03:00:34;;;;;;;29.93;16.47;;;3.30;99.90;;;;;;4244353;27;20267;-55
2023/12/13 03:02:36;;;;;;;33.07;16.57;;;3.30;99.90;;;;;;4245125;27;20259;-58
2023/12/13 03:04:38;;;;;;;28.83;15.53;;;3.30;99.90;;;;;;4244612;27;20279;-59
2023/12/13 03:06:39;;;;;;;29.90;15.90;;;3.30;99.90;;;;;;4244514;27;20676;-59
2023/12/13 03:08:40;;;;;;;30.73;16.53;;;3.30;99.90;;;;;;4244269;27;21139;-58
2023/12/13 03:10:41;;;;;;;32.27;16.80;;;3.30;99.90;;;;;;4244628;27;20287;-60
2023/12/13 03:12:42;;;;;;;29.80;15.27;;;3.30;99.90;;;;;;4226539;28;20284;-58
2023/12/13 03:14:43;;;;;;;29.53;16.60;;;3.30;99.90;;;;;;4243749;27;20259;-59
2023/12/13 03:16:45;;;;;;;34.40;16.77;;;3.30;99.90;;;;;;4245076;27;20260;-59
2023/12/13 03:18:46;;;;;;;32.30;15.53;;;3.30;99.90;;;;;;4243885;27;20255;-58
2023/12/13 03:20:47;;;;;;;33.30;16.40;;;3.30;99.90;;;;;;4244776;27;20256;-59
2023/12/13 03:22:49;;;;;;;29.53;16.80;;;3.20;99.90;;;;;;4244628;27;20312;-58
2023/12/13 03:24:57;;;;;;;27.83;15.93;;;3.20;99.90;;;;;;4226604;28;20695;-58
2023/12/13 03:26:59;;;;;;;26.40;15.37;;;3.30;99.90;;;;;;4243508;27;20316;-58
2023/12/13 03:29:00;;;;;;;28.23;16.20;;;3.20;99.90;;;;;;4243216;27;20292;-59
2023/12/13 03:31:07;;;;;;;28.30;16.20;;;3.30;99.90;;;;;;4244767;27;20263;-57
2023/12/13 03:33:09;;;;;;;30.77;15.97;;;3.30;99.90;;;;;;4243866;27;21015;-57
2023/12/13 03:35:10;;;;;;;29.30;16.23;;;3.30;99.90;;;;;;4244659;27;20697;-58
2023/12/13 03:37:11;;;;;;;28.43;15.83;;;3.30;99.90;;;;;;4243807;27;20275;-57
2023/12/13 03:39:12;;;;;;;27.87;15.50;;;3.30;99.90;;;;;;4244759;27;20267;-58
2023/12/13 03:41:13;;;;;;;28.43;15.47;;;3.40;99.90;;;;;;4244228;27;20263;-57
2023/12/13 03:43:15;;;;;;;32.10;16.00;;;3.40;99.90;;;;;;4244464;27;20264;-58
2023/12/13 03:45:16;;;;;;;26.93;15.87;;;3.40;99.90;;;;;;4244074;27;20351;-59
2023/12/13 03:47:17;;;;;;;27.37;14.83;;;3.40;99.90;;;;;;4244970;27;20268;-56
2023/12/13 03:49:18;;;;;;;26.37;14.57;;;3.40;99.90;;;;;;4243715;27;20299;-58
2023/12/13 03:51:20;;;;;;;29.70;15.07;;;3.40;99.90;;;;;;4244413;27;20271;-55
2023/12/13 03:53:21;;;;;;;32.07;16.77;;;3.40;99.90;;;;;;4244065;27;20366;-58
2023/12/13 03:55:22;;;;;;;29.83;14.97;;;3.40;99.90;;;;;;4244952;27;20271;-58
2023/12/13 03:57:23;;;;;;;33.60;16.67;;;3.40;99.90;;;;;;4244026;27;20271;-57
2023/12/13 03:59:24;;;;;;;28.80;16.70;;;3.40;99.90;;;;;;4243814;27;20371;-57
2023/12/13 04:01:26;;;;;;;30.87;16.20;;;3.40;99.90;;;;;;4244557;27;20263;-58
2023/12/13 04:03:27;;;;;;;29.03;16.23;;;3.30;99.90;;;;;;4243469;27;20264;-58
2023/12/13 04:05:28;;;;;;;30.33;16.93;;;3.30;99.90;;;;;;4243587;27;20479;-58
2023/12/13 04:07:30;;;;;;;28.63;16.57;;;3.30;99.90;;;;;;4243137;27;20271;-58
2023/12/13 04:09:31;;;;;;;28.40;16.20;;;3.30;99.90;;;;;;4243877;27;20344;-59
2023/12/13 04:11:32;;;;;;;34.53;16.60;;;3.20;99.90;;;;;;4243464;27;20807;-57
2023/12/13 04:13:33;;;;;;;29.07;15.70;;;3.30;99.90;;;;;;4243731;27;20294;-59
2023/12/13 04:15:35;;;;;;;32.00;16.40;;;3.30;99.90;;;;;;4243602;27;20300;-59
2023/12/13 04:17:36;;;;;;;37.73;18.33;;;3.20;99.90;;;;;;4243871;27;20320;-59
2023/12/13 04:19:38;;;;;;;33.37;17.00;;;3.20;99.90;;;;;;4243013;27;20275;-58
2023/12/13 04:21:39;;;;;;;32.30;17.03;;;3.10;99.90;;;;;;4244324;27;20247;-57
2023/12/13 04:23:41;;;;;;;32.57;17.20;;;3.10;99.90;;;;;;4242499;27;20289;-58
2023/12/13 04:25:42;;;;;;;29.13;15.97;;;3.10;99.90;;;;;;4243803;27;20316;-55
2023/12/13 04:27:45;;;;;;;35.60;17.87;;;3.00;99.90;;;;;;4243345;27;20787;-59
2023/12/13 04:29:47;;;;;;;34.67;17.70;;;3.00;99.90;;;;;;4243547;27;20287;-59
2023/12/13 04:31:49;;;;;;;33.13;18.13;;;3.00;99.90;;;;;;4243455;27;20774;-58
2023/12/13 04:33:51;;;;;;;34.53;19.03;;;3.10;99.90;;;;;;4243319;27;20251;-58
2023/12/13 04:35:57;;;;;;;36.07;18.50;;;3.00;99.90;;;;;;4242766;27;20260;-59
2023/12/13 04:37:59;;;;;;;31.23;17.47;;;3.00;99.90;;;;;;4242292;27;20264;-59
2023/12/13 04:40:00;;;;;;;36.87;19.93;;;3.10;99.90;;;;;;4243308;27;20331;-58
2023/12/13 04:42:03;;;;;;;33.60;19.10;;;3.00;99.90;;;;;;4242404;27;20308;-57
2023/12/13 04:44:04;;;;;;;34.50;18.97;;;3.10;99.90;;;;;;4243010;27;20331;-56
2023/12/13 04:46:05;;;;;;;35.67;19.57;;;3.10;99.90;;;;;;4242648;27;20316;-60
2023/12/13 04:48:07;;;;;;;31.50;17.53;;;3.10;99.90;;;;;;4243748;27;20419;-58
2023/12/13 04:50:09;;;;;;;37.20;18.63;;;3.10;99.90;;;;;;4242508;27;20363;-60
2023/12/13 04:52:10;;;;;;;29.80;17.00;;;3.20;99.90;;;;;;4242826;27;20703;-59
2023/12/13 04:54:11;;;;;;;34.83;18.40;;;3.20;99.90;;;;;;4242345;27;20264;-59
2023/12/13 04:56:13;;;;;;;29.07;16.97;;;3.20;99.90;;;;;;4241928;27;20276;-58
2023/12/13 04:58:14;;;;;;;32.20;17.50;;;3.20;99.90;;;;;;4242560;27;20329;-59
2023/12/13 05:00:15;;;;;;;33.07;17.93;;;3.20;99.90;;;;;;4242506;27;20723;-58
2023/12/13 05:02:17;;;;;;;34.67;17.30;;;3.20;99.90;;;;;;4233611;27;20314;-58
2023/12/13 05:04:18;;;;;;;31.43;17.90;;;3.20;99.90;;;;;;4225403;28;20298;-56
2023/12/13 05:06:19;;;;;;;30.93;16.87;;;3.10;99.90;;;;;;4226028;28;20313;-56
2023/12/13 05:08:21;;;;;;;32.50;18.20;;;3.10;99.90;;;;;;4225856;28;21102;-59
2023/12/13 05:10:23;;;;;;;29.03;17.10;;;3.10;99.90;;;;;;4225161;27;20977;-60
2023/12/13 05:12:24;;;;;;;34.83;17.73;;;3.10;99.90;;;;;;4242300;27;20259;-59
2023/12/13 05:14:25;;;;;;;32.20;17.90;;;3.10;99.90;;;;;;4242691;27;20344;-56
2023/12/13 05:16:26;;;;;;;33.07;17.40;;;3.10;99.90;;;;;;4242251;27;20767;-59
2023/12/13 05:18:27;;;;;;;35.73;18.43;;;3.10;99.90;;;;;;4242825;27;20328;-59
2023/12/13 05:20:28;;;;;;;33.87;16.90;;;3.10;99.90;;;;;;4242103;27;20793;-57
2023/12/13 05:22:30;;;;;;;33.80;17.70;;;3.10;99.90;;;;;;4243039;27;20617;-58
2023/12/13 05:24:31;;;;;;;34.97;17.63;;;3.10;99.90;;;;;;4248461;27;20319;-57
2023/12/13 05:26:33;;;;;;;33.53;18.27;;;3.00;99.90;;;;;;4247061;27;20336;-59
2023/12/13 05:28:34;;;;;;;32.93;17.70;;;3.10;99.90;;;;;;4241678;27;20945;-56
2023/12/13 05:30:35;;;;;;;34.80;17.00;;;3.10;99.90;;;;;;4242480;27;20280;-56
2023/12/13 05:32:37;;;;;;;32.43;17.30;;;3.10;99.90;;;;;;4241651;27;20763;-57
2023/12/13 05:34:38;;;;;;;35.17;17.07;;;3.10;99.90;;;;;;4242752;28;20271;-57
2023/12/13 05:36:39;;;;;;;33.03;17.80;;;3.10;99.90;;;;;;4242185;28;20275;-56
2023/12/13 05:38:41;;;;;;;32.20;17.30;;;3.10;99.90;;;;;;4223968;28;20288;-58
2023/12/13 05:40:43;;;;;;;33.97;18.13;;;3.10;99.90;;;;;;4241534;28;20907;-59
2023/12/13 05:42:44;;;;;;;29.80;16.23;;;3.10;99.90;;;;;;4242342;28;20263;-57
2023/12/13 05:44:46;;;;;;;27.90;16.70;;;3.20;99.90;;;;;;4242825;28;20323;-58
2023/12/13 05:46:48;;;;;;;28.97;14.20;;;3.20;99.90;;;;;;4242109;28;20271;-55
2023/12/13 05:48:49;;;;;;;28.23;15.17;;;3.30;99.90;;;;;;4242996;28;20367;-56
2023/12/13 05:50:50;;;;;;;30.33;15.43;;;3.30;99.90;;;;;;4241532;28;20311;-58
2023/12/13 05:52:51;;;;;;;27.60;15.13;;;3.40;99.90;;;;;;4241810;28;20291;-58
2023/12/13 05:54:52;;;;;;;25.20;14.20;;;3.40;99.90;;;;;;4241759;28;20276;-56
2023/12/13 05:56:54;;;;;;;26.70;14.20;;;3.40;99.90;;;;;;4242445;28;20267;-59
2023/12/13 05:58:55;;;;;;;27.50;14.67;;;3.40;99.90;;;;;;4241526;28;20644;-56
2023/12/13 06:00:57;;;;;;;35.27;17.20;;;3.50;99.90;;;;;;4223897;28;20349;-56
2023/12/13 06:02:58;;;;;;;28.30;15.47;;;3.50;99.90;;;;;;4241480;28;20316;-58
2023/12/13 06:05:00;;;;;;;26.37;15.53;;;3.50;99.90;;;;;;4242229;28;20272;-57
2023/12/13 06:07:01;;;;;;;28.20;15.23;;;3.50;99.90;;;;;;4241697;28;20656;-58
2023/12/13 06:09:03;;;;;;;30.47;16.07;;;3.40;99.90;;;;;;4242260;28;20276;-58
2023/12/13 06:11:04;;;;;;;27.03;14.67;;;3.40;99.90;;;;;;4242294;28;20759;-58
2023/12/13 06:13:05;;;;;;;30.13;16.40;;;3.30;99.90;;;;;;4241788;28;21232;-58
2023/12/13 06:15:07;;;;;;;28.57;14.50;;;3.30;99.90;;;;;;4242491;28;20743;-58
2023/12/13 06:17:08;;;;;;;30.60;16.20;;;3.20;99.90;;;;;;4241690;28;20300;-58
2023/12/13 06:19:09;;;;;;;32.07;16.63;;;3.20;99.90;;;;;;4242858;28;20338;-55
2023/12/13 06:21:10;;;;;;;31.10;17.20;;;3.20;99.90;;;;;;4242044;28;20240;-56
2023/12/13 06:23:12;;;;;;;26.43;16.37;;;3.10;99.90;;;;;;4242460;28;20312;-57
2023/12/13 06:25:13;;;;;;;25.77;14.83;;;3.20;99.90;;;;;;4241818;28;20239;-52
2023/12/13 06:27:14;;;;;;;30.63;16.13;;;3.20;99.90;;;;;;4242559;28;20268;-55
2023/12/13 06:29:16;;;;;;;27.23;14.47;;;3.20;99.90;;;;;;4241741;28;20320;-56
2023/12/13 06:31:17;;;;;;;29.57;15.43;;;3.20;99.90;;;;;;4242589;28;20888;-56
2023/12/13 06:33:18;;;;;;;29.93;15.30;;;3.20;99.90;;;;;;4241324;28;20271;-57
2023/12/13 06:35:20;;;;;;;24.10;14.37;;;3.20;99.90;;;;;;4241307;28;20332;-57
2023/12/13 06:37:21;;;;;;;27.83;14.57;;;3.20;99.90;;;;;;4239137;27;20356;-55
2023/12/13 06:39:22;;;;;;;30.83;16.20;;;3.10;99.90;;;;;;4241945;28;20264;-57
2023/12/13 06:41:23;;;;;;;30.80;15.17;;;3.20;99.90;;;;;;4243408;27;20267;-53
2023/12/13 06:43:24;;;;;;;27.00;15.07;;;3.20;99.90;;;;;;4243830;27;20328;-57
2023/12/13 06:45:25;;;;;;;25.27;13.30;;;3.20;99.90;;;;;;4245511;27;20282;-58
2023/12/13 06:47:27;;;;;;;22.50;12.97;;;3.20;99.90;;;;;;4242583;27;20283;-59
2023/12/13 06:49:30;;;;;;;25.93;13.27;;;3.30;99.90;;;;;;4244560;27;20275;-56
2023/12/13 06:51:32;;;;;;;25.70;13.03;;;3.30;99.90;;;;;;4243968;27;20746;-58
2023/12/13 06:53:39;;;;;;;29.83;13.47;;;3.30;99.90;;;;;;4244815;27;20275;-57
2023/12/13 06:55:40;;;;;;;25.47;13.83;;;3.30;99.90;;;;;;4243930;27;20264;-57
2023/12/13 06:57:41;;;;;;;30.40;14.00;;;3.20;99.90;;;;;;4245806;27;20271;-59
2023/12/13 06:59:42;;;;;;;22.27;12.43;;;3.20;99.90;;;;;;4244285;27;20275;-57
2023/12/13 07:01:44;;;;;;;30.90;14.03;;;3.20;99.90;;;;;;4244525;27;20840;-58
2023/12/13 07:03:45;;;;;;;24.60;12.83;;;3.30;99.90;;;;;;4244546;27;20797;-60
2023/12/13 07:05:46;;;;;;;26.30;13.83;;;3.30;99.90;;;;;;4244179;27;20320;-59
2023/12/13 07:07:48;;;;;;;24.90;13.13;;;3.20;99.90;;;;;;4243890;27;20811;-60
2023/12/13 07:09:49;;;;;;;25.60;13.07;;;3.20;99.90;;;;;;4245068;27;20320;-58
2023/12/13 07:11:50;;;;;;;26.87;13.57;;;3.20;99.90;;;;;;4244759;27;20607;-59
2023/12/13 07:13:51;;;;;;;25.83;13.33;;;3.20;99.90;;;;;;4245030;27;20251;-58
2023/12/13 07:15:53;;;;;;;25.13;12.73;;;3.30;99.90;;;;;;4245148;27;20332;-59
2023/12/13 07:17:54;;;;;;;23.60;12.93;;;3.30;99.90;;;;;;4244173;27;20387;-55
2023/12/13 07:19:55;;;;;;;23.37;12.90;;;3.30;99.90;;;;;;4244482;27;20324;-58
2023/12/13 07:21:56;;;;;;;23.43;12.90;;;3.30;99.90;;;;;;4242156;27;20743;-59
2023/12/13 07:23:57;;;;;;;23.07;12.87;;;3.30;99.90;;;;;;4244259;27;20271;-58
2023/12/13 07:25:58;;;;;;;24.27;13.47;;;3.30;99.90;;;;;;4244453;27;20324;-57
2023/12/13 07:28:00;;;;;;;21.10;12.73;;;3.30;99.90;;;;;;4244830;27;20296;-57
2023/12/13 07:30:01;;;;;;;24.60;15.20;;;3.30;99.90;;;;;;4244230;27;20275;-57
2023/12/13 07:32:04;;;;;;;26.60;14.57;;;3.40;99.90;;;;;;4233996;27;20672;-58
2023/12/13 07:34:05;;;;;;;24.23;12.93;;;3.40;99.90;;;;;;4233319;27;20268;-52
2023/12/13 07:36:07;;;;;;;23.87;11.93;;;3.40;99.90;;;;;;4237886;27;20320;-59
2023/12/13 07:38:08;;;;;;;20.00;11.67;;;3.40;99.90;;;;;;4235806;27;20744;-58
2023/12/13 07:40:10;;;;;;;23.10;12.33;;;3.40;99.90;;;;;;4237055;27;20259;-57
2023/12/13 07:42:11;;;;;;;25.20;12.47;;;3.50;99.90;;;;;;4243839;27;20287;-59
2023/12/13 07:44:12;;;;;;;20.90;12.20;;;3.50;99.90;;;;;;4243308;27;20275;-57
2023/12/13 07:46:13;;;;;;;21.03;10.80;;;3.50;99.90;;;;;;4243005;27;20279;-59
2023/12/13 07:48:15;;;;;;;23.10;12.13;;;3.50;99.90;;;;;;4243467;27;20718;-58
2023/12/13 07:50:16;;;;;;;22.80;11.73;;;3.60;99.90;;;;;;4243362;27;20359;-60
2023/12/13 07:52:17;;;;;;;22.50;11.87;;;3.50;99.90;;;;;;4241160;27;20839;-56
2023/12/13 07:54:20;;;;;;;22.03;11.50;;;3.50;99.90;;;;;;4243563;27;20807;-59
2023/12/13 07:56:21;;;;;;;20.47;12.23;;;3.50;99.90;;;;;;4243033;27;20324;-59
2023/12/13 07:58:22;;;;;;;23.73;12.33;;;3.50;99.90;;;;;;4243425;27;20340;-59
2023/12/13 08:00:23;;;;;;;22.43;12.57;;;3.50;99.90;;;;;;4242848;27;20324;-60
2023/12/13 08:02:24;;;;;;;23.53;11.97;;;3.50;99.90;;;;;;4242909;27;20287;-59
2023/12/13 08:04:26;;;;;;;23.30;12.37;;;3.50;99.90;;;;;;4243139;27;20482;-57
2023/12/13 08:06:27;;;;;;;20.80;10.83;;;3.50;99.90;;;;;;4243463;27;20267;-53
2023/12/13 08:08:29;;;;;;;20.30;10.30;;;3.50;99.90;;;;;;4242901;27;20681;-59
2023/12/13 08:10:30;;;;;;;19.53;11.03;;;3.60;99.90;;;;;;4243042;27;20307;-61
2023/12/13 08:12:31;;;;;;;18.23;10.67;;;3.60;99.90;;;;;;4242227;27;20750;-60
2023/12/13 08:14:33;;;;;;;19.50;11.43;;;3.60;99.90;;;;;;4242621;27;20279;-60
2023/12/13 08:16:34;;;;;;;23.07;12.67;;;3.60;99.90;;;;;;4243536;27;20363;-58
2023/12/13 08:18:36;;;;;;;19.10;10.73;;;3.70;99.90;;;;;;4242498;27;20286;-60
2023/12/13 08:20:37;;;;;;;21.77;11.40;;;3.70;99.90;;;;;;4243110;27;20279;-59
2023/12/13 08:22:38;;;;;;;16.90;10.03;;;3.70;99.90;;;;;;4242139;27;20392;-59
2023/12/13 08:24:40;;;;;;;18.70;10.67;;;3.70;99.90;;;;;;4242859;27;20328;-59
2023/12/13 08:26:41;;;;;;;17.03;10.23;;;3.80;99.90;;;;;;4241945;27;20520;-59
2023/12/13 08:28:42;;;;;;;19.83;9.87;;;3.80;99.90;;;;;;4243945;27;20293;-59
2023/12/13 08:30:43;;;;;;;19.10;9.60;;;3.80;99.90;;;;;;4241936;27;20677;-59
2023/12/13 08:32:44;;;;;;;17.87;10.37;;;3.90;99.90;;;;;;4242822;27;20316;-59
2023/12/13 08:34:46;;;;;;;18.50;9.63;;;3.90;99.90;;;;;;4241839;27;20271;-58
2023/12/13 08:36:47;;;;;;;18.77;10.27;;;3.80;99.90;;;;;;4242131;27;20335;-60
2023/12/13 08:38:48;;;;;;;15.30;9.13;;;3.80;99.90;;;;;;4242352;27;20316;-57
2023/12/13 08:40:50;;;;;;;17.33;10.30;;;3.90;99.90;;;;;;4242861;27;20259;-59
2023/12/13 08:42:51;;;;;;;16.50;9.30;;;3.90;99.90;;;;;;4241857;27;20335;-58
2023/12/13 08:44:52;;;;;;;14.70;8.60;;;3.90;99.90;;;;;;4242286;27;20263;-60
2023/12/13 08:46:53;;;;;;;14.27;8.23;;;3.90;99.90;;;;;;4243163;27;20381;-58
2023/12/13 08:48:54;;;;;;;14.00;7.80;;;3.90;99.90;;;;;;4242291;27;20324;-59
2023/12/13 08:50:56;;;;;;;16.23;8.30;;;3.90;99.90;;;;;;4242670;27;20111;-58
2023/12/13 08:52:57;;;;;;;17.43;8.03;;;3.90;99.90;;;;;;4241131;27;20295;-59
2023/12/13 08:54:58;;;;;;;16.60;9.43;;;4.00;99.90;;;;;;4243378;27;20281;-59
2023/12/13 08:56:59;;;;;;;15.90;9.33;;;3.90;99.90;;;;;;4242419;27;20255;-59
2023/12/13 08:59:01;;;;;;;18.90;8.83;;;4.00;99.90;;;;;;4242721;27;20263;-59
2023/12/13 09:01:02;;;;;;;15.80;8.97;;;4.00;99.90;;;;;;4242054;27;20287;-56
2023/12/13 09:03:04;;;;;;;17.47;9.57;;;4.00;99.90;;;;;;4242366;27;20283;-60
2023/12/13 09:05:06;;;;;;;16.90;8.77;;;4.00;99.90;;;;;;4241812;27;20316;-59
2023/12/13 09:07:07;;;;;;;14.97;9.43;;;4.00;99.90;;;;;;4242329;27;20741;-58
2023/12/13 09:09:11;;;;;;;16.97;9.67;;;4.00;99.90;;;;;;4242909;27;20031;-60
2023/12/13 09:11:12;;;;;;;14.87;8.37;;;4.00;99.90;;;;;;4242933;27;20320;-59
2023/12/13 09:13:13;;;;;;;15.37;8.60;;;4.10;99.90;;;;;;4241860;27;20344;-58
2023/12/13 09:15:18;;;;;;;16.43;8.27;;;4.10;99.90;;;;;;4241433;27;20747;-60
2023/12/13 09:17:19;;;;;;;14.23;8.33;;;4.10;99.90;;;;;;4242024;27;20715;-59
2023/12/13 09:19:20;;;;;;;14.70;7.73;;;4.00;99.90;;;;;;4242439;27;20614;-57
2023/12/13 09:21:22;;;;;;;15.30;8.83;;;4.10;99.90;;;;;;4242357;27;20753;-59
2023/12/13 09:23:25;;;;;;;15.03;7.60;;;4.10;99.90;;;;;;4239755;27;20316;-57
2023/12/13 09:25:26;;;;;;;16.30;8.47;;;4.20;99.90;;;;;;4242704;27;20300;-59
2023/12/13 09:27:27;;;;;;;16.10;8.70;;;4.20;99.90;;;;;;4250653;27;20711;-58
2023/12/13 09:29:28;;;;;;;16.50;8.43;;;4.20;99.90;;;;;;4245760;27;20283;-56
2023/12/13 09:31:30;;;;;;;18.73;9.27;;;4.20;99.90;;;;;;4241895;27;20474;-59
2023/12/13 09:33:31;;;;;;;18.80;8.33;;;4.20;99.90;;;;;;4241943;27;20076;-59
2023/12/13 09:35:32;;;;;;;12.60;7.33;;;4.20;99.90;;;;;;4240933;28;20557;-59
2023/12/13 09:37:33;;;;;;;12.63;8.10;;;4.30;99.90;;;;;;4241965;28;20320;-61
2023/12/13 09:39:35;;;;;;;13.77;7.67;;;4.20;99.90;;;;;;4241859;28;20581;-60
2023/12/13 09:41:54;;;;;;;15.53;8.03;;;4.30;99.90;;;;;;4224038;28;20276;-59
2023/12/13 09:43:55;;;;;;;16.00;8.83;;;4.20;99.90;;;;;;4232636;28;20361;-59
2023/12/13 09:45:57;;;;;;;13.00;8.00;;;4.30;99.90;;;;;;4242748;28;20320;-59
2023/12/13 09:47:59;;;;;;;19.40;8.77;;;4.30;99.90;;;;;;4241641;28;20275;-58
2023/12/13 09:50:00;;;;;;;15.20;7.93;;;4.30;99.90;;;;;;4241543;28;20035;-60
2023/12/13 09:52:06;;;;;;;16.93;7.10;;;4.30;99.90;;;;;;4242184;28;20356;-58
2023/12/13 09:54:07;;;;;;;10.77;6.70;;;4.30;99.90;;;;;;4241777;28;20320;-58
2023/12/13 09:56:09;;;;;;;11.83;6.87;;;4.30;99.90;;;;;;4242363;28;20661;-58
2023/12/13 09:58:11;;;;;;;11.30;6.57;;;4.40;99.90;;;;;;4241495;28;20043;-58
2023/12/13 10:00:12;;;;;;;9.97;6.23;;;4.40;99.90;;;;;;4242123;28;20470;-57
2023/12/13 10:02:16;;;;;;;8.17;5.03;;;4.40;99.90;;;;;;4221845;28;20132;-60
2023/12/13 10:04:18;;;;;;;11.70;6.70;;;4.40;99.90;;;;;;4241589;28;20039;-58
2023/12/13 10:06:19;;;;;;;13.07;8.20;;;4.50;99.90;;;;;;4241074;28;20323;-58
2023/12/13 10:08:20;;;;;;;13.57;7.43;;;4.50;99.90;;;;;;4214080;28;20326;-59
2023/12/13 10:10:22;;;;;;;13.07;7.23;;;4.50;99.90;;;;;;4241895;28;20856;-56
2023/12/13 10:12:25;;;;;;;15.57;8.80;;;4.60;99.90;;;;;;4243238;28;20056;-57
2023/12/13 10:14:27;;;;;;;16.70;8.07;;;4.60;99.90;;;;;;4240218;27;20080;-57
2023/12/13 10:16:28;;;;;;;15.63;8.13;;;4.60;99.90;;;;;;4244687;27;20035;-57
2023/12/13 10:18:30;;;;;;;12.60;6.80;;;4.70;99.90;;;;;;4245389;27;20482;-55
2023/12/13 10:20:31;;;;;;;13.60;7.63;;;4.70;99.90;;;;;;4244481;27;20032;-59
2023/12/13 10:22:34;;;;;;;11.80;6.27;;;4.70;99.90;;;;;;4245496;27;20036;-58
2023/12/13 10:24:35;;;;;;;13.83;6.90;;;4.70;99.90;;;;;;4244633;27;20100;-59